CYGW

Kuujjuarapik Airport

Kuujjuarapik, Quebec, Canada
METAR CYGW 160903Z AUTO 09014G19KT 5SM -SN FEW023 BKN034 OVC050 M08/M10 A2981 RMK PRESFR SLP098
Observed Flight Rules
Nov-16 @ 09:03 UTC (43 minutes ago) Marginal Visual Flight Rules
Wind Visibility Clouds Conditions
90° at 14 knots
 Gusting to 19 knots
5 miles
  • Few at 2,300' AGL
  • Broken at 3,400' AGL
  • Overcast at 5,000' AGL
  • Light Snow
Temperatures Readings
Current -8°C / 18°F
Dewpoint -10°C / 14°F
Humidity 86%
Altimeter 29.81" Hg
Pressure 1009.8 hPa
Elevation 12
METAR CYGW 160903Z AUTO 09014G19KT 5SM -SN FEW023 BKN034 OVC050 M08/M10 A2981 RMK PRESFR SLP098
Observed Flight Rules
Nov-16 @ 09:03 UTC
(43 minutes ago)
MVFR
Wind Visibility
90° at 14 knots
 Gusting to 19 knots
5 miles
Clouds
  • Few at 2,300' AGL
  • Broken at 3,400' AGL
  • Overcast at 5,000' AGL
Conditions
  • Light Snow
Temperature Dewpoint
-8°C / 18°F -10°C / 14°F
Humidity Altimeter Pressure
86% 29.81" Hg 1009.8 hPa